Clarklake, Michigan
Current Conditions -  °F | °C
As of 7:56 PM on Saturday 22 Nov 2014 (Local Time) from KJXN Reporting Station
Overcast Overcast  
Wind Chill: 43°   Ceiling: 2300
Heat Index: 48°   Visibility: 10mi
Dew Point: 44°   Wind: 13mph
Humidity: 86%   Direction: 210°SSW
Pressure: 29.92"   Gusts: NA
Location:  42.12°N, 84.34°W
Report Text: KJXN 230056Z 21011KT 10SM OVC023 09/07 A2992 RMK AO2 RAE03B36E50 SLP139 P0000 T00890067
Loading
Personal Weather Stations






























Interactive Weather Map New forecast layout! Learn more

10-Day Weather Forecast

Advertisements
Track Severe Weather on mobile